Aeroporto :
LOGIN :

Iscrizione | Disclaimer

   EN    FR    IT 

 










Sommario :    VFR   VFR Marginale   IFR   IFR Intensivo   IFR Molto Intensivo
Visibilità : 
Base nubi : 
>= 8 km
>= 3000ft
5 / 8 km
1000 / 3000 ft
1500m / 5 km
500 / 1000 ft
800 / 1500m
200 / 500 ft
< 800m
< 200 ft
Simboli :   Temporali  Nebbia  Neve Forte  Precipitazioni Forti  Vento > 20 kt
SIGMETs :   Varie  Temporali  Ghiacco  Turbolenza  Onda orograficha  Ceneri Vulcaniche






- Altitudine del aeroporto : 2265 ft
- Codice IATA : CZL


DABC - Mohamed Boudiaf Int. Constantine

ULTIMO METAR :
  • 111300Z 36010KT 9999 FEW033 38/10 Q1016

METARs OBSOLETI :
  • 111200Z 27006KT 9999 FEW033 38/10 Q1017
  • 111100Z 27005KT 9999 FEW033 36/10 Q1018

TAF TAF DABC
Valido dal 11 a 12 ore il 12 a 12 ore UTC


111100Z 1112/1212 27008KT 9999 FEW033
TEMPO 1112/1120 35012KT FEW026CB



MetMap, La meteo Aeronautica in un colpo d'occhio ! - Copyright ORBIFLY Dicembre 2007 - Disclaimer

ORBIFLY MET'MAP TEAM :

Programmazione e sviluppo : Alexandra Zaïnal
Concezione : Baudouin d'Aumeries
Aiuto per la programmazione : Marc-Olivier Méhu
Supporto tecnico e logistico : Manuel Goepfert
Aiuto per la traduzione : Arnaldo La Scala

Contatto : metmap@orbifly.com




FONTI E CREDITI :

   NOAA